sensor_id;sensor_type;location;lat;lon;timestamp;temperature;humidity
12043;DHT22;6082;49.306;12.862;2022-10-16T00:01:25;15.30;99.90
12043;DHT22;6082;49.306;12.862;2022-10-16T00:03:52;15.40;99.90
12043;DHT22;6082;49.306;12.862;2022-10-16T00:06:19;15.40;99.90
12043;DHT22;6082;49.306;12.862;2022-10-16T00:08:46;15.30;99.90
12043;DHT22;6082;49.306;12.862;2022-10-16T00:11:19;15.30;99.90
12043;DHT22;6082;49.306;12.862;2022-10-16T00:13:46;15.30;99.90
12043;DHT22;6082;49.306;12.862;2022-10-16T00:16:13;15.30;99.90
12043;DHT22;6082;49.306;12.862;2022-10-16T00:18:40;15.30;99.90
12043;DHT22;6082;49.306;12.862;2022-10-16T00:21:18;15.30;99.90
12043;DHT22;6082;49.306;12.862;2022-10-16T00:23:44;15.30;99.90
12043;DHT22;6082;49.306;12.862;2022-10-16T00:26:13;15.30;99.90
12043;DHT22;6082;49.306;12.862;2022-10-16T00:28:40;15.30;99.90
12043;DHT22;6082;49.306;12.862;2022-10-16T00:31:07;15.30;99.90
12043;DHT22;6082;49.306;12.862;2022-10-16T00:33:34;15.30;99.90
12043;DHT22;6082;49.306;12.862;2022-10-16T00:36:01;15.30;99.90
12043;DHT22;6082;49.306;12.862;2022-10-16T00:38:28;15.30;99.90
12043;DHT22;6082;49.306;12.862;2022-10-16T00:40:54;15.30;99.90
12043;DHT22;6082;49.306;12.862;2022-10-16T00:46:17;15.30;99.90
12043;DHT22;6082;49.306;12.862;2022-10-16T00:49:11;15.20;99.90
12043;DHT22;6082;49.306;12.862;2022-10-16T00:54:14;15.20;99.90
12043;DHT22;6082;49.306;12.862;2022-10-16T00:56:41;15.20;99.90
12043;DHT22;6082;49.306;12.862;2022-10-16T00:59:16;15.20;99.90
12043;DHT22;6082;49.306;12.862;2022-10-16T01:01:42;15.20;99.90
12043;DHT22;6082;49.306;12.862;2022-10-16T01:04:07;15.10;99.90
12043;DHT22;6082;49.306;12.862;2022-10-16T01:12:14;15.10;99.90
12043;DHT22;6082;49.306;12.862;2022-10-16T01:14:47;15.10;99.90
12043;DHT22;6082;49.306;12.862;2022-10-16T01:20:27;15.10;99.90
12043;DHT22;6082;49.306;12.862;2022-10-16T01:26:44;15.10;99.90
12043;DHT22;6082;49.306;12.862;2022-10-16T01:29:15;15.10;99.90
12043;DHT22;6082;49.306;12.862;2022-10-16T01:31:46;15.10;99.90
12043;DHT22;6082;49.306;12.862;2022-10-16T01:34:28;15.10;99.90
12043;DHT22;6082;49.306;12.862;2022-10-16T01:37:09;15.10;99.90
12043;DHT22;6082;49.306;12.862;2022-10-16T01:39:39;15.10;99.90
12043;DHT22;6082;49.306;12.862;2022-10-16T01:42:17;15.10;99.90
12043;DHT22;6082;49.306;12.862;2022-10-16T01:44:45;15.10;99.90
12043;DHT22;6082;49.306;12.862;2022-10-16T01:47:13;15.10;99.90
12043;DHT22;6082;49.306;12.862;2022-10-16T01:49:41;15.10;99.90
12043;DHT22;6082;49.306;12.862;2022-10-16T01:52:12;15.10;99.90
12043;DHT22;6082;49.306;12.862;2022-10-16T01:54:42;15.00;99.90
12043;DHT22;6082;49.306;12.862;2022-10-16T01:57:10;15.00;99.90
12043;DHT22;6082;49.306;12.862;2022-10-16T01:59:43;15.00;99.90
12043;DHT22;6082;49.306;12.862;2022-10-16T02:02:10;15.00;99.90
12043;DHT22;6082;49.306;12.862;2022-10-16T02:04:46;15.00;99.90
12043;DHT22;6082;49.306;12.862;2022-10-16T02:07:14;15.00;99.90
12043;DHT22;6082;49.306;12.862;2022-10-16T02:09:40;15.00;99.90
12043;DHT22;6082;49.306;12.862;2022-10-16T02:12:19;15.00;99.90
12043;DHT22;6082;49.306;12.862;2022-10-16T02:14:46;14.90;99.90
12043;DHT22;6082;49.306;12.862;2022-10-16T02:17:17;14.90;99.90
12043;DHT22;6082;49.306;12.862;2022-10-16T02:19:44;14.90;99.90
12043;DHT22;6082;49.306;12.862;2022-10-16T02:22:17;14.90;99.90
12043;DHT22;6082;49.306;12.862;2022-10-16T02:27:31;14.90;99.90
12043;DHT22;6082;49.306;12.862;2022-10-16T02:30:27;14.90;99.90
12043;DHT22;6082;49.306;12.862;2022-10-16T02:32:55;14.90;99.90
12043;DHT22;6082;49.306;12.862;2022-10-16T02:35:23;14.90;99.90
12043;DHT22;6082;49.306;12.862;2022-10-16T02:37:50;14.80;99.90
12043;DHT22;6082;49.306;12.862;2022-10-16T02:40:18;14.80;99.90
12043;DHT22;6082;49.306;12.862;2022-10-16T02:42:43;14.80;99.90
12043;DHT22;6082;49.306;12.862;2022-10-16T02:45:11;14.80;99.90
12043;DHT22;6082;49.306;12.862;2022-10-16T02:47:37;14.80;99.90
12043;DHT22;6082;49.306;12.862;2022-10-16T02:50:04;14.80;99.90
12043;DHT22;6082;49.306;12.862;2022-10-16T02:52:29;14.80;99.90
12043;DHT22;6082;49.306;12.862;2022-10-16T02:54:55;14.80;99.90
12043;DHT22;6082;49.306;12.862;2022-10-16T02:57:21;14.80;99.90
12043;DHT22;6082;49.306;12.862;2022-10-16T02:59:46;14.80;99.90
12043;DHT22;6082;49.306;12.862;2022-10-16T03:02:12;14.80;99.90
12043;DHT22;6082;49.306;12.862;2022-10-16T03:04:38;14.80;99.90
12043;DHT22;6082;49.306;12.862;2022-10-16T03:07:04;14.80;99.90
12043;DHT22;6082;49.306;12.862;2022-10-16T03:09:30;14.80;99.90
12043;DHT22;6082;49.306;12.862;2022-10-16T03:11:55;14.80;99.90
12043;DHT22;6082;49.306;12.862;2022-10-16T03:14:21;14.80;99.90
12043;DHT22;6082;49.306;12.862;2022-10-16T03:16:47;14.70;99.90
12043;DHT22;6082;49.306;12.862;2022-10-16T03:19:12;14.70;99.90
12043;DHT22;6082;49.306;12.862;2022-10-16T03:21:38;14.70;99.90
12043;DHT22;6082;49.306;12.862;2022-10-16T03:24:04;14.70;99.90
12043;DHT22;6082;49.306;12.862;2022-10-16T03:26:30;14.70;99.90
12043;DHT22;6082;49.306;12.862;2022-10-16T03:28:55;14.70;99.90
12043;DHT22;6082;49.306;12.862;2022-10-16T03:31:21;14.70;99.90
12043;DHT22;6082;49.306;12.862;2022-10-16T03:33:47;14.70;99.90
12043;DHT22;6082;49.306;12.862;2022-10-16T03:36:13;14.70;99.90
12043;DHT22;6082;49.306;12.862;2022-10-16T03:38:39;14.70;99.90
12043;DHT22;6082;49.306;12.862;2022-10-16T03:41:04;14.80;99.90
12043;DHT22;6082;49.306;12.862;2022-10-16T03:43:30;14.80;99.90
12043;DHT22;6082;49.306;12.862;2022-10-16T03:45:56;14.80;99.90
12043;DHT22;6082;49.306;12.862;2022-10-16T03:48:21;14.80;99.90
12043;DHT22;6082;49.306;12.862;2022-10-16T03:50:47;14.80;99.90
12043;DHT22;6082;49.306;12.862;2022-10-16T03:53:14;14.70;99.90
12043;DHT22;6082;49.306;12.862;2022-10-16T03:55:44;14.70;99.90
12043;DHT22;6082;49.306;12.862;2022-10-16T03:58:10;14.70;99.90
12043;DHT22;6082;49.306;12.862;2022-10-16T04:00:43;14.70;99.90
12043;DHT22;6082;49.306;12.862;2022-10-16T04:03:10;14.70;99.90
12043;DHT22;6082;49.306;12.862;2022-10-16T04:05:35;14.70;99.90
12043;DHT22;6082;49.306;12.862;2022-10-16T04:08:01;14.70;99.90
12043;DHT22;6082;49.306;12.862;2022-10-16T04:10:27;14.70;99.90
12043;DHT22;6082;49.306;12.862;2022-10-16T04:12:53;14.70;99.90
12043;DHT22;6082;49.306;12.862;2022-10-16T04:15:22;14.70;99.90
12043;DHT22;6082;49.306;12.862;2022-10-16T04:17:48;14.70;99.90
12043;DHT22;6082;49.306;12.862;2022-10-16T04:20:14;14.70;99.90
12043;DHT22;6082;49.306;12.862;2022-10-16T04:22:40;14.70;99.90
12043;DHT22;6082;49.306;12.862;2022-10-16T04:25:06;14.70;99.90
12043;DHT22;6082;49.306;12.862;2022-10-16T04:27:32;14.70;99.90
12043;DHT22;6082;49.306;12.862;2022-10-16T04:29:58;14.70;99.90
12043;DHT22;6082;49.306;12.862;2022-10-16T04:32:24;14.70;99.90
12043;DHT22;6082;49.306;12.862;2022-10-16T04:34:50;14.70;99.90
12043;DHT22;6082;49.306;12.862;2022-10-16T04:37:16;14.70;99.90
12043;DHT22;6082;49.306;12.862;2022-10-16T04:39:42;14.70;99.90
12043;DHT22;6082;49.306;12.862;2022-10-16T04:42:08;14.70;99.90
12043;DHT22;6082;49.306;12.862;2022-10-16T04:44:33;14.70;99.90
12043;DHT22;6082;49.306;12.862;2022-10-16T04:46:59;14.70;99.90
12043;DHT22;6082;49.306;12.862;2022-10-16T04:49:25;14.70;99.90
12043;DHT22;6082;49.306;12.862;2022-10-16T04:51:50;14.70;99.90
12043;DHT22;6082;49.306;12.862;2022-10-16T04:54:16;14.70;99.90
12043;DHT22;6082;49.306;12.862;2022-10-16T04:56:42;14.70;99.90
12043;DHT22;6082;49.306;12.862;2022-10-16T04:59:17;14.70;99.90
12043;DHT22;6082;49.306;12.862;2022-10-16T05:01:43;14.70;99.90
12043;DHT22;6082;49.306;12.862;2022-10-16T05:04:09;14.70;99.90
12043;DHT22;6082;49.306;12.862;2022-10-16T05:06:35;14.70;99.90
12043;DHT22;6082;49.306;12.862;2022-10-16T05:09:01;14.70;99.90
12043;DHT22;6082;49.306;12.862;2022-10-16T05:11:27;14.70;99.90
12043;DHT22;6082;49.306;12.862;2022-10-16T05:13:53;14.70;99.90
12043;DHT22;6082;49.306;12.862;2022-10-16T05:16:18;14.70;99.90
12043;DHT22;6082;49.306;12.862;2022-10-16T05:18:44;14.70;99.90
12043;DHT22;6082;49.306;12.862;2022-10-16T05:21:10;14.70;99.90
12043;DHT22;6082;49.306;12.862;2022-10-16T05:23:35;14.70;99.90
12043;DHT22;6082;49.306;12.862;2022-10-16T05:26:01;14.70;99.90
12043;DHT22;6082;49.306;12.862;2022-10-16T05:28:28;14.70;99.90
12043;DHT22;6082;49.306;12.862;2022-10-16T05:30:56;14.70;99.90
12043;DHT22;6082;49.306;12.862;2022-10-16T05:33:23;14.70;99.90
12043;DHT22;6082;49.306;12.862;2022-10-16T05:35:49;14.70;99.90
12043;DHT22;6082;49.306;12.862;2022-10-16T05:38:16;14.70;99.90
12043;DHT22;6082;49.306;12.862;2022-10-16T05:40:42;14.70;99.90
12043;DHT22;6082;49.306;12.862;2022-10-16T05:43:08;14.70;99.90
12043;DHT22;6082;49.306;12.862;2022-10-16T05:45:34;14.70;99.90
12043;DHT22;6082;49.306;12.862;2022-10-16T05:48:00;14.70;99.90
12043;DHT22;6082;49.306;12.862;2022-10-16T05:50:26;14.80;99.90
12043;DHT22;6082;49.306;12.862;2022-10-16T05:52:52;14.80;99.90
12043;DHT22;6082;49.306;12.862;2022-10-16T05:55:18;14.80;99.90
12043;DHT22;6082;49.306;12.862;2022-10-16T05:57:44;14.80;99.90
12043;DHT22;6082;49.306;12.862;2022-10-16T06:00:10;14.80;99.90
12043;DHT22;6082;49.306;12.862;2022-10-16T06:02:36;14.80;99.90
12043;DHT22;6082;49.306;12.862;2022-10-16T06:05:01;14.80;99.90
12043;DHT22;6082;49.306;12.862;2022-10-16T06:07:27;14.80;99.90
12043;DHT22;6082;49.306;12.862;2022-10-16T06:09:53;14.80;99.90
12043;DHT22;6082;49.306;12.862;2022-10-16T06:12:19;14.90;99.90
12043;DHT22;6082;49.306;12.862;2022-10-16T06:14:46;14.90;99.90
12043;DHT22;6082;49.306;12.862;2022-10-16T06:17:15;14.90;99.90
12043;DHT22;6082;49.306;12.862;2022-10-16T06:19:41;15.00;99.90
12043;DHT22;6082;49.306;12.862;2022-10-16T06:22:06;15.00;99.90
12043;DHT22;6082;49.306;12.862;2022-10-16T06:24:32;15.00;99.90
12043;DHT22;6082;49.306;12.862;2022-10-16T06:26:58;15.00;99.90
12043;DHT22;6082;49.306;12.862;2022-10-16T06:29:24;15.00;99.90
12043;DHT22;6082;49.306;12.862;2022-10-16T06:31:49;15.00;99.90
12043;DHT22;6082;49.306;12.862;2022-10-16T06:34:15;15.10;99.90
12043;DHT22;6082;49.306;12.862;2022-10-16T06:36:41;15.00;99.90
12043;DHT22;6082;49.306;12.862;2022-10-16T06:39:08;15.10;99.90
12043;DHT22;6082;49.306;12.862;2022-10-16T06:41:34;15.10;99.90
12043;DHT22;6082;49.306;12.862;2022-10-16T06:44:00;15.20;99.90
12043;DHT22;6082;49.306;12.862;2022-10-16T06:46:27;15.20;99.90
12043;DHT22;6082;49.306;12.862;2022-10-16T06:48:53;15.30;99.90
12043;DHT22;6082;49.306;12.862;2022-10-16T06:51:21;15.30;99.90
12043;DHT22;6082;49.306;12.862;2022-10-16T06:53:49;15.40;99.90
12043;DHT22;6082;49.306;12.862;2022-10-16T06:56:24;15.40;99.90
12043;DHT22;6082;49.306;12.862;2022-10-16T06:58:50;15.40;99.90
12043;DHT22;6082;49.306;12.862;2022-10-16T07:01:17;15.50;99.90
12043;DHT22;6082;49.306;12.862;2022-10-16T07:03:45;15.60;99.90
12043;DHT22;6082;49.306;12.862;2022-10-16T07:06:13;15.60;99.90
12043;DHT22;6082;49.306;12.862;2022-10-16T07:08:41;15.60;99.90
12043;DHT22;6082;49.306;12.862;2022-10-16T07:11:12;15.60;99.90
12043;DHT22;6082;49.306;12.862;2022-10-16T07:13:40;15.70;99.90
12043;DHT22;6082;49.306;12.862;2022-10-16T07:16:11;15.70;99.90
12043;DHT22;6082;49.306;12.862;2022-10-16T07:18:38;15.80;99.90
12043;DHT22;6082;49.306;12.862;2022-10-16T07:21:13;15.90;99.90
12043;DHT22;6082;49.306;12.862;2022-10-16T07:23:40;16.00;99.90
12043;DHT22;6082;49.306;12.862;2022-10-16T07:26:06;16.10;99.90
12043;DHT22;6082;49.306;12.862;2022-10-16T07:28:33;16.20;99.90
12043;DHT22;6082;49.306;12.862;2022-10-16T07:31:07;16.20;99.90
12043;DHT22;6082;49.306;12.862;2022-10-16T07:33:34;16.30;99.90
12043;DHT22;6082;49.306;12.862;2022-10-16T07:36:00;16.30;99.90
12043;DHT22;6082;49.306;12.862;2022-10-16T07:38:26;16.40;99.90
12043;DHT22;6082;49.306;12.862;2022-10-16T07:41:02;16.40;99.90
12043;DHT22;6082;49.306;12.862;2022-10-16T07:43:28;16.40;99.90
12043;DHT22;6082;49.306;12.862;2022-10-16T07:45:54;16.30;99.90
12043;DHT22;6082;49.306;12.862;2022-10-16T07:48:20;16.40;99.90
12043;DHT22;6082;49.306;12.862;2022-10-16T07:50:46;16.40;99.90
12043;DHT22;6082;49.306;12.862;2022-10-16T07:53:13;16.40;99.90
12043;DHT22;6082;49.306;12.862;2022-10-16T07:55:39;16.40;99.90
12043;DHT22;6082;49.306;12.862;2022-10-16T07:58:05;16.40;99.90
12043;DHT22;6082;49.306;12.862;2022-10-16T08:00:31;16.40;99.90
12043;DHT22;6082;49.306;12.862;2022-10-16T08:02:58;16.40;99.90
12043;DHT22;6082;49.306;12.862;2022-10-16T08:05:27;16.40;99.90
12043;DHT22;6082;49.306;12.862;2022-10-16T08:07:53;16.40;99.90
12043;DHT22;6082;49.306;12.862;2022-10-16T08:10:21;16.40;99.90
12043;DHT22;6082;49.306;12.862;2022-10-16T08:12:47;16.50;99.90
12043;DHT22;6082;49.306;12.862;2022-10-16T08:15:13;16.50;99.90
12043;DHT22;6082;49.306;12.862;2022-10-16T08:17:39;16.50;99.90
12043;DHT22;6082;49.306;12.862;2022-10-16T08:20:05;16.50;99.90
12043;DHT22;6082;49.306;12.862;2022-10-16T08:22:31;16.50;99.90
12043;DHT22;6082;49.306;12.862;2022-10-16T08:24:57;16.60;99.90
12043;DHT22;6082;49.306;12.862;2022-10-16T08:27:22;16.60;99.90
12043;DHT22;6082;49.306;12.862;2022-10-16T08:29:51;16.60;99.90
12043;DHT22;6082;49.306;12.862;2022-10-16T08:32:17;16.60;99.90
12043;DHT22;6082;49.306;12.862;2022-10-16T08:34:42;16.70;99.90
12043;DHT22;6082;49.306;12.862;2022-10-16T08:37:08;16.70;99.90
12043;DHT22;6082;49.306;12.862;2022-10-16T08:39:36;16.70;99.90
12043;DHT22;6082;49.306;12.862;2022-10-16T08:42:33;16.70;99.90
12043;DHT22;6082;49.306;12.862;2022-10-16T08:47:49;16.80;99.90
12043;DHT22;6082;49.306;12.862;2022-10-16T08:50:29;16.90;99.90
12043;DHT22;6082;49.306;12.862;2022-10-16T08:52:57;16.90;99.90
12043;DHT22;6082;49.306;12.862;2022-10-16T08:55:52;17.00;99.90
12043;DHT22;6082;49.306;12.862;2022-10-16T08:58:23;17.00;99.90
12043;DHT22;6082;49.306;12.862;2022-10-16T09:00:57;17.10;99.90
12043;DHT22;6082;49.306;12.862;2022-10-16T09:14:12;17.10;99.90
12043;DHT22;6082;49.306;12.862;2022-10-16T09:16:48;17.20;99.90
12043;DHT22;6082;49.306;12.862;2022-10-16T09:19:28;17.20;99.90
12043;DHT22;6082;49.306;12.862;2022-10-16T09:21:56;17.30;99.90
12043;DHT22;6082;49.306;12.862;2022-10-16T09:24:26;17.30;99.90
12043;DHT22;6082;49.306;12.862;2022-10-16T09:26:52;17.40;99.90
12043;DHT22;6082;49.306;12.862;2022-10-16T09:29:19;17.40;99.90
12043;DHT22;6082;49.306;12.862;2022-10-16T09:31:46;17.50;99.90
12043;DHT22;6082;49.306;12.862;2022-10-16T09:34:26;17.60;99.90
12043;DHT22;6082;49.306;12.862;2022-10-16T09:36:54;17.60;99.90
12043;DHT22;6082;49.306;12.862;2022-10-16T09:39:21;17.70;99.90
12043;DHT22;6082;49.306;12.862;2022-10-16T09:41:47;17.70;99.90
12043;DHT22;6082;49.306;12.862;2022-10-16T09:46:44;17.80;99.90
12043;DHT22;6082;49.306;12.862;2022-10-16T09:49:23;17.80;99.90
12043;DHT22;6082;49.306;12.862;2022-10-16T09:51:49;17.90;99.90
12043;DHT22;6082;49.306;12.862;2022-10-16T09:54:20;17.90;99.90
12043;DHT22;6082;49.306;12.862;2022-10-16T09:56:47;18.00;99.90
12043;DHT22;6082;49.306;12.862;2022-10-16T09:59:22;18.10;99.90
12043;DHT22;6082;49.306;12.862;2022-10-16T10:01:54;18.20;99.90
12043;DHT22;6082;49.306;12.862;2022-10-16T10:04:22;18.30;99.90
12043;DHT22;6082;49.306;12.862;2022-10-16T10:09:31;18.40;99.90
12043;DHT22;6082;49.306;12.862;2022-10-16T10:12:03;18.50;99.90
12043;DHT22;6082;49.306;12.862;2022-10-16T10:22:44;18.70;99.90
12043;DHT22;6082;49.306;12.862;2022-10-16T10:31:13;18.80;99.90
12043;DHT22;6082;49.306;12.862;2022-10-16T10:38:56;18.90;99.90
12043;DHT22;6082;49.306;12.862;2022-10-16T10:44:52;19.00;99.90
12043;DHT22;6082;49.306;12.862;2022-10-16T10:47:27;19.00;99.90
12043;DHT22;6082;49.306;12.862;2022-10-16T11:01:08;19.20;99.90
12043;DHT22;6082;49.306;12.862;2022-10-16T11:09:18;19.50;99.90
12043;DHT22;6082;49.306;12.862;2022-10-16T11:12:00;19.60;99.90
12043;DHT22;6082;49.306;12.862;2022-10-16T11:14:30;19.70;99.90
12043;DHT22;6082;49.306;12.862;2022-10-16T11:17:18;19.70;99.90
12043;DHT22;6082;49.306;12.862;2022-10-16T11:19:52;19.80;99.90
12043;DHT22;6082;49.306;12.862;2022-10-16T11:22:33;19.80;99.90
12043;DHT22;6082;49.306;12.862;2022-10-16T11:25:20;19.80;99.90
12043;DHT22;6082;49.306;12.862;2022-10-16T11:28:13;20.00;99.90
12043;DHT22;6082;49.306;12.862;2022-10-16T11:31:02;20.10;99.90
12043;DHT22;6082;49.306;12.862;2022-10-16T11:36:36;20.30;99.90
12043;DHT22;6082;49.306;12.862;2022-10-16T11:44:14;20.60;99.90
12043;DHT22;6082;49.306;12.862;2022-10-16T11:46:48;20.70;99.90
12043;DHT22;6082;49.306;12.862;2022-10-16T11:49:24;20.80;99.90
12043;DHT22;6082;49.306;12.862;2022-10-16T11:52:15;20.90;99.90
12043;DHT22;6082;49.306;12.862;2022-10-16T11:54:54;21.00;99.90
12043;DHT22;6082;49.306;12.862;2022-10-16T11:57:25;21.00;99.90
12043;DHT22;6082;49.306;12.862;2022-10-16T12:00:04;21.10;99.90
12043;DHT22;6082;49.306;12.862;2022-10-16T12:10:26;21.00;99.90
12043;DHT22;6082;49.306;12.862;2022-10-16T12:12:53;20.90;99.90
12043;DHT22;6082;49.306;12.862;2022-10-16T12:17:48;20.90;99.90
12043;DHT22;6082;49.306;12.862;2022-10-16T12:23:04;20.90;99.90
12043;DHT22;6082;49.306;12.862;2022-10-16T12:25:34;20.90;99.90
12043;DHT22;6082;49.306;12.862;2022-10-16T12:28:06;20.90;99.90
12043;DHT22;6082;49.306;12.862;2022-10-16T12:30:43;20.90;99.90
12043;DHT22;6082;49.306;12.862;2022-10-16T12:33:29;20.90;99.90
12043;DHT22;6082;49.306;12.862;2022-10-16T12:35:56;20.90;99.90
12043;DHT22;6082;49.306;12.862;2022-10-16T12:41:11;20.90;99.90
12043;DHT22;6082;49.306;12.862;2022-10-16T12:43:42;21.00;99.90
12043;DHT22;6082;49.306;12.862;2022-10-16T12:48:36;21.00;99.90
12043;DHT22;6082;49.306;12.862;2022-10-16T12:53:46;21.00;99.90
12043;DHT22;6082;49.306;12.862;2022-10-16T13:01:42;21.00;99.90
12043;DHT22;6082;49.306;12.862;2022-10-16T13:09:49;21.00;99.90
12043;DHT22;6082;49.306;12.862;2022-10-16T13:18:05;21.10;99.90
12043;DHT22;6082;49.306;12.862;2022-10-16T13:26:23;21.30;99.90
12043;DHT22;6082;49.306;12.862;2022-10-16T13:28:51;21.30;99.90
12043;DHT22;6082;49.306;12.862;2022-10-16T13:31:22;21.30;99.90
12043;DHT22;6082;49.306;12.862;2022-10-16T13:33:55;21.20;99.90
12043;DHT22;6082;49.306;12.862;2022-10-16T13:36:44;21.20;99.90
12043;DHT22;6082;49.306;12.862;2022-10-16T13:41:43;21.20;99.90
12043;DHT22;6082;49.306;12.862;2022-10-16T13:44:20;21.20;99.90
12043;DHT22;6082;49.306;12.862;2022-10-16T13:46:46;21.20;99.90
12043;DHT22;6082;49.306;12.862;2022-10-16T13:49:15;21.20;99.90
12043;DHT22;6082;49.306;12.862;2022-10-16T13:51:41;21.30;99.90
12043;DHT22;6082;49.306;12.862;2022-10-16T13:54:18;21.30;99.90
12043;DHT22;6082;49.306;12.862;2022-10-16T13:56:44;21.30;99.90
12043;DHT22;6082;49.306;12.862;2022-10-16T13:59:36;21.30;99.90
12043;DHT22;6082;49.306;12.862;2022-10-16T14:02:33;21.30;99.90
12043;DHT22;6082;49.306;12.862;2022-10-16T14:05:02;21.30;99.90
12043;DHT22;6082;49.306;12.862;2022-10-16T14:07:31;21.30;99.90
12043;DHT22;6082;49.306;12.862;2022-10-16T14:10:03;21.40;99.90
12043;DHT22;6082;49.306;12.862;2022-10-16T14:12:29;21.30;99.90
12043;DHT22;6082;49.306;12.862;2022-10-16T14:14:55;21.30;99.90
12043;DHT22;6082;49.306;12.862;2022-10-16T14:17:31;21.30;99.90
12043;DHT22;6082;49.306;12.862;2022-10-16T14:20:00;21.30;99.90
12043;DHT22;6082;49.306;12.862;2022-10-16T14:24:58;21.30;99.90
12043;DHT22;6082;49.306;12.862;2022-10-16T14:27:32;21.30;99.90
12043;DHT22;6082;49.306;12.862;2022-10-16T14:30:17;21.30;99.90
12043;DHT22;6082;49.306;12.862;2022-10-16T14:32:54;21.30;99.90
12043;DHT22;6082;49.306;12.862;2022-10-16T14:35:39;21.20;99.90
12043;DHT22;6082;49.306;12.862;2022-10-16T14:38:14;21.20;99.90
12043;DHT22;6082;49.306;12.862;2022-10-16T14:40:47;21.20;99.90
12043;DHT22;6082;49.306;12.862;2022-10-16T14:43:22;21.20;99.90
12043;DHT22;6082;49.306;12.862;2022-10-16T14:45:56;21.20;99.90
12043;DHT22;6082;49.306;12.862;2022-10-16T14:48:22;21.20;99.90
12043;DHT22;6082;49.306;12.862;2022-10-16T14:50:49;21.20;99.90
12043;DHT22;6082;49.306;12.862;2022-10-16T14:53:16;21.20;99.90
12043;DHT22;6082;49.306;12.862;2022-10-16T14:55:42;21.20;99.90
12043;DHT22;6082;49.306;12.862;2022-10-16T14:58:22;21.10;99.90
12043;DHT22;6082;49.306;12.862;2022-10-16T15:00:48;21.00;99.90
12043;DHT22;6082;49.306;12.862;2022-10-16T15:03:15;21.00;99.90
12043;DHT22;6082;49.306;12.862;2022-10-16T15:05:40;21.00;99.90
12043;DHT22;6082;49.306;12.862;2022-10-16T15:08:06;20.90;99.90
12043;DHT22;6082;49.306;12.862;2022-10-16T15:10:38;20.90;99.90
12043;DHT22;6082;49.306;12.862;2022-10-16T15:13:04;20.90;99.90
12043;DHT22;6082;49.306;12.862;2022-10-16T15:15:36;20.90;99.90
12043;DHT22;6082;49.306;12.862;2022-10-16T15:18:02;20.80;99.90
12043;DHT22;6082;49.306;12.862;2022-10-16T15:20:39;20.80;99.90
12043;DHT22;6082;49.306;12.862;2022-10-16T15:23:09;20.80;99.90
12043;DHT22;6082;49.306;12.862;2022-10-16T15:25:43;20.80;99.90
12043;DHT22;6082;49.306;12.862;2022-10-16T15:28:11;20.70;99.90
12043;DHT22;6082;49.306;12.862;2022-10-16T15:30:37;20.80;99.90
12043;DHT22;6082;49.306;12.862;2022-10-16T15:33:04;20.70;99.90
12043;DHT22;6082;49.306;12.862;2022-10-16T15:35:30;20.70;99.90
12043;DHT22;6082;49.306;12.862;2022-10-16T15:37:57;20.60;99.90
12043;DHT22;6082;49.306;12.862;2022-10-16T15:40:23;20.60;99.90
12043;DHT22;6082;49.306;12.862;2022-10-16T15:42:49;20.50;99.90
12043;DHT22;6082;49.306;12.862;2022-10-16T15:45:15;20.50;99.90
12043;DHT22;6082;49.306;12.862;2022-10-16T15:47:42;20.40;99.90
12043;DHT22;6082;49.306;12.862;2022-10-16T15:50:10;20.40;99.90
12043;DHT22;6082;49.306;12.862;2022-10-16T15:52:37;20.30;99.90
12043;DHT22;6082;49.306;12.862;2022-10-16T15:55:08;20.30;99.90
12043;DHT22;6082;49.306;12.862;2022-10-16T15:57:35;20.20;99.90
12043;DHT22;6082;49.306;12.862;2022-10-16T16:00:07;20.20;99.90
12043;DHT22;6082;49.306;12.862;2022-10-16T16:02:33;20.10;99.90
12043;DHT22;6082;49.306;12.862;2022-10-16T16:04:59;20.10;99.90
12043;DHT22;6082;49.306;12.862;2022-10-16T16:07:25;20.00;99.90
12043;DHT22;6082;49.306;12.862;2022-10-16T16:09:50;20.00;99.90
12043;DHT22;6082;49.306;12.862;2022-10-16T16:12:16;20.00;99.90
12043;DHT22;6082;49.306;12.862;2022-10-16T16:14:41;19.90;99.90
12043;DHT22;6082;49.306;12.862;2022-10-16T16:17:11;19.80;99.90
12043;DHT22;6082;49.306;12.862;2022-10-16T16:19:37;19.80;99.90
12043;DHT22;6082;49.306;12.862;2022-10-16T16:22:03;19.70;99.90
12043;DHT22;6082;49.306;12.862;2022-10-16T16:24:28;19.60;99.90
12043;DHT22;6082;49.306;12.862;2022-10-16T16:26:54;19.50;99.90
12043;DHT22;6082;49.306;12.862;2022-10-16T16:29:20;19.50;99.90
12043;DHT22;6082;49.306;12.862;2022-10-16T16:31:46;19.40;99.90
12043;DHT22;6082;49.306;12.862;2022-10-16T16:34:13;19.30;99.90
12043;DHT22;6082;49.306;12.862;2022-10-16T16:36:38;19.30;99.90
12043;DHT22;6082;49.306;12.862;2022-10-16T16:39:06;19.20;99.90
12043;DHT22;6082;49.306;12.862;2022-10-16T16:41:32;19.10;99.90
12043;DHT22;6082;49.306;12.862;2022-10-16T16:44:06;19.10;99.90
12043;DHT22;6082;49.306;12.862;2022-10-16T16:46:33;19.00;99.90
12043;DHT22;6082;49.306;12.862;2022-10-16T16:49:00;19.00;99.90
12043;DHT22;6082;49.306;12.862;2022-10-16T16:51:26;18.90;99.90
12043;DHT22;6082;49.306;12.862;2022-10-16T16:53:54;18.80;99.90
12043;DHT22;6082;49.306;12.862;2022-10-16T16:56:21;18.80;99.90
12043;DHT22;6082;49.306;12.862;2022-10-16T16:58:49;18.70;99.90
12043;DHT22;6082;49.306;12.862;2022-10-16T17:01:15;18.70;99.90
12043;DHT22;6082;49.306;12.862;2022-10-16T17:03:43;18.60;99.90
12043;DHT22;6082;49.306;12.862;2022-10-16T17:06:12;18.50;99.90
12043;DHT22;6082;49.306;12.862;2022-10-16T17:08:40;18.40;99.90
12043;DHT22;6082;49.306;12.862;2022-10-16T17:11:11;18.40;99.90
12043;DHT22;6082;49.306;12.862;2022-10-16T17:13:37;18.30;99.90
12043;DHT22;6082;49.306;12.862;2022-10-16T17:16:05;18.30;99.90
12043;DHT22;6082;49.306;12.862;2022-10-16T17:18:31;18.30;99.90
12043;DHT22;6082;49.306;12.862;2022-10-16T17:21:05;18.20;99.90
12043;DHT22;6082;49.306;12.862;2022-10-16T17:23:35;18.20;99.90
12043;DHT22;6082;49.306;12.862;2022-10-16T17:26:11;18.10;99.90
12043;DHT22;6082;49.306;12.862;2022-10-16T17:28:37;18.10;99.90
12043;DHT22;6082;49.306;12.862;2022-10-16T17:31:08;18.00;99.90
12043;DHT22;6082;49.306;12.862;2022-10-16T17:33:34;18.00;99.90
12043;DHT22;6082;49.306;12.862;2022-10-16T17:35:59;18.00;99.90
12043;DHT22;6082;49.306;12.862;2022-10-16T17:38:25;17.90;99.90
12043;DHT22;6082;49.306;12.862;2022-10-16T17:40:51;17.90;99.90
12043;DHT22;6082;49.306;12.862;2022-10-16T17:43:17;17.80;99.90
12043;DHT22;6082;49.306;12.862;2022-10-16T17:45:43;17.80;99.90
12043;DHT22;6082;49.306;12.862;2022-10-16T17:48:08;17.70;99.90
12043;DHT22;6082;49.306;12.862;2022-10-16T17:50:38;17.70;99.90
12043;DHT22;6082;49.306;12.862;2022-10-16T17:53:04;17.60;99.90
12043;DHT22;6082;49.306;12.862;2022-10-16T17:55:29;17.60;99.90
12043;DHT22;6082;49.306;12.862;2022-10-16T17:57:56;17.50;99.90